Main page
METAR-TAF:

METAR-TAF

Airports :

Leuchars, Scotland

Leuchars Station

latitude: 56-23N, longitude: 002-52W, elevation: 12 m

Current weather observation

The report was made 1 hour and 9 minutes ago, at 12:50 UTC
Wind 23 kt from the West
Temperature 16°C
Humidity 51%
Pressure 1004 hPa
Visibility 10 km or more
Few clouds at a height of 4200 ft
Broken clouds at a height of 5000 ft

METAR: EGQL 241250Z 26023KT 9999 FEW042 BKN050 16/06 Q1004 BLU

Time: 14:59 (13:59 UTC)

Forecast

The report was made 3 hours and 42 minutes ago, at 10:17 UTC
Forecast valid from 24 at 12 UTC to 24 at 21 UTC
Wind 15 kt from the West with gusts up to 25 kt
Visibility 10 km or more
Few clouds at a height of 3000 ft
Scattered clouds at a height of 4000 ft
Probability 30% :
Temporary
from 24 at 12 UTC to 24 at 21 UTC
Wind 22 kt from the West with gusts up to 35 kt

TAF: EGQL 241017Z 2412/2421 26015G25KT 9999 FEW030 SCT040 PROB30 TEMPO 2412/2421 27022G35KT

Weather observations and forecasts of more than 4000 airports (METAR and TAF reports).

The available stations are represented by yellow and red dots on the map.

Hover mouse over dot to see the name of the station.

Then click to see weather observations and forecasts.

To change the map : click on the green buttons with a black cross to zoom in, on the green button with a dash to zoom out, or on the green arrows for adjacent maps.


METAR-TAF: